createdAt,value
2023-04-26T00:00:45.294Z,9.88
2023-04-26T00:05:46.857Z,9.75
2023-04-26T00:10:48.369Z,5.55
2023-04-26T00:15:50.044Z,8.63
2023-04-26T00:20:51.628Z,7.80
2023-04-26T00:25:53.158Z,7.45
2023-04-26T00:30:54.764Z,6.28
2023-04-26T00:35:56.368Z,5.13
2023-04-26T00:40:57.991Z,6.30
2023-04-26T00:45:59.640Z,5.30
2023-04-26T00:51:01.423Z,5.85
2023-04-26T00:56:03.486Z,6.82
2023-04-26T01:01:05.144Z,19.67
2023-04-26T01:06:07.133Z,7.05
2023-04-26T01:11:12.001Z,8.27
2023-04-26T01:16:15.144Z,7.35
2023-04-26T01:21:23.877Z,7.85
2023-04-26T01:26:25.869Z,7.85
2023-04-26T01:31:29.052Z,8.65
2023-04-26T01:36:30.748Z,6.72
2023-04-26T01:41:34.004Z,6.47
2023-04-26T01:46:35.826Z,5.18
2023-04-26T01:51:37.732Z,9.82
2023-04-26T01:56:42.061Z,8.55
2023-04-26T02:01:43.633Z,7.25
2023-04-26T02:06:45.793Z,5.82
2023-04-26T02:11:47.671Z,8.77
2023-04-26T02:16:49.702Z,5.55
2023-04-26T02:21:56.465Z,7.35
2023-04-26T02:31:59.708Z,9.82
2023-04-26T02:37:01.955Z,9.63
2023-04-26T02:42:03.775Z,10.32
2023-04-26T02:47:05.689Z,13.05
2023-04-26T02:52:07.592Z,10.73
2023-04-26T02:57:09.891Z,15.13
2023-04-26T03:02:11.524Z,11.75
2023-04-26T03:07:13.476Z,10.07
2023-04-26T03:12:14.986Z,15.65
2023-04-26T03:17:16.640Z,19.20
2023-04-26T03:22:18.623Z,12.10
2023-04-26T03:27:20.361Z,11.15
2023-04-26T03:32:22.318Z,9.45
2023-04-26T03:37:24.662Z,13.23
2023-04-26T03:42:33.686Z,13.90
2023-04-26T03:47:35.401Z,14.63
2023-04-26T03:52:37.756Z,14.07
2023-04-26T03:57:40.286Z,16.95
2023-04-26T04:02:43.025Z,10.32
2023-04-26T04:07:48.440Z,14.38
2023-04-26T04:12:51.354Z,14.32
2023-04-26T04:17:53.410Z,11.15
2023-04-26T04:22:56.487Z,16.35
2023-04-26T04:27:58.198Z,9.82
2023-04-26T04:33:00.066Z,13.75
2023-04-26T04:38:01.689Z,14.32
2023-04-26T04:43:04.426Z,16.23
2023-04-26T04:48:07.939Z,12.98
2023-04-26T04:53:11.119Z,16.67
2023-04-26T04:58:12.837Z,16.63
2023-04-26T05:03:15.218Z,26.08
2023-04-26T05:08:17.555Z,19.30
2023-04-26T05:13:19.471Z,16.25
2023-04-26T05:18:21.430Z,15.35
2023-04-26T05:23:23.927Z,12.55
2023-04-26T05:28:25.995Z,8.40
2023-04-26T05:33:56.805Z,6.70
2023-04-26T05:39:04.628Z,6.28
2023-04-26T05:44:07.064Z,8.07
2023-04-26T05:49:09.125Z,8.85
2023-04-26T05:54:10.863Z,8.85
2023-04-26T05:59:13.300Z,8.02
2023-04-26T06:04:15.554Z,9.27
2023-04-26T06:09:33.031Z,6.28
2023-04-26T06:14:34.806Z,7.90
2023-04-26T06:24:42.978Z,11.32
2023-04-26T06:29:44.872Z,10.00
2023-04-26T06:34:46.969Z,8.25
2023-04-26T06:39:48.753Z,9.07
2023-04-26T06:44:50.995Z,9.05
2023-04-26T06:49:52.648Z,8.10
2023-04-26T06:54:57.634Z,8.02
2023-04-26T06:59:59.743Z,8.68
2023-04-26T07:05:01.922Z,8.40
2023-04-26T07:10:04.174Z,9.35
2023-04-26T07:15:06.602Z,11.05
2023-04-26T07:20:08.844Z,8.55
2023-04-26T07:25:10.333Z,9.18
2023-04-26T07:30:12.018Z,9.27
2023-04-26T07:35:13.532Z,9.60
2023-04-26T07:40:15.629Z,11.48
2023-04-26T07:45:17.235Z,7.97
2023-04-26T07:50:19.042Z,8.73
2023-04-26T07:55:21.504Z,12.93
2023-04-26T08:00:23.991Z,12.15
2023-04-26T08:05:26.751Z,11.60
2023-04-26T08:10:28.492Z,8.63
2023-04-26T08:15:30.342Z,10.55
2023-04-26T08:20:32.818Z,11.25
2023-04-26T08:25:34.814Z,12.32
2023-04-26T08:30:36.770Z,11.30
2023-04-26T08:35:38.405Z,9.40
2023-04-26T08:40:43.254Z,11.73
2023-04-26T08:45:46.527Z,8.52
2023-04-26T08:50:48.441Z,8.10
2023-04-26T08:55:50.970Z,9.20
2023-04-26T09:00:52.908Z,6.47
2023-04-26T09:05:55.311Z,10.80
2023-04-26T09:11:01.041Z,7.85
2023-04-26T09:16:04.761Z,11.33
2023-04-26T09:21:08.936Z,11.02
2023-04-26T09:26:17.734Z,9.35
2023-04-26T09:31:43.051Z,8.02
2023-04-26T09:36:52.728Z,8.52
2023-04-26T09:41:54.531Z,8.50
2023-04-26T09:47:10.947Z,6.85
2023-04-26T09:57:15.971Z,9.70
2023-04-26T10:02:26.015Z,8.73
2023-04-26T10:07:30.285Z,6.35
2023-04-26T10:12:31.882Z,6.10
2023-04-26T10:17:33.553Z,9.15
2023-04-26T10:22:40.569Z,5.05
2023-04-26T10:27:45.285Z,5.07
2023-04-26T10:32:52.861Z,5.55
2023-04-26T10:38:01.149Z,10.15
2023-04-26T10:43:08.696Z,9.13
2023-04-26T10:48:23.770Z,5.93
2023-04-26T10:53:25.881Z,4.85
2023-04-26T10:58:34.213Z,6.65
2023-04-26T11:03:36.199Z,5.72
2023-04-26T11:08:38.261Z,8.43
2023-04-26T11:13:44.062Z,5.05
2023-04-26T11:18:47.302Z,5.97
2023-04-26T11:23:55.481Z,7.20
2023-04-26T11:28:57.091Z,8.88
2023-04-26T11:34:04.729Z,7.70
2023-04-26T11:39:06.971Z,7.70
2023-04-26T11:44:11.502Z,4.50
2023-04-26T11:49:13.802Z,9.63
2023-04-26T11:54:36.132Z,5.43
2023-04-26T11:59:37.922Z,13.98
2023-04-26T12:04:40.832Z,5.93
2023-04-26T12:09:42.809Z,7.28
2023-04-26T12:14:47.119Z,7.35
2023-04-26T12:19:50.032Z,6.35
2023-04-26T12:25:04.481Z,7.93
2023-04-26T12:30:07.009Z,6.40
2023-04-26T12:35:09.146Z,6.05
2023-04-26T12:40:11.714Z,5.68
2023-04-26T12:45:13.577Z,6.57
2023-04-26T12:50:17.970Z,4.82
2023-04-26T12:55:20.799Z,9.73
2023-04-26T13:00:22.859Z,4.72
2023-04-26T13:05:27.196Z,7.68
2023-04-26T13:10:28.869Z,7.38
2023-04-26T13:15:30.773Z,11.35
2023-04-26T13:20:32.575Z,6.65
2023-04-26T13:25:34.428Z,8.40
2023-04-26T13:30:36.057Z,5.05
2023-04-26T13:35:37.947Z,8.63
2023-04-26T13:40:39.770Z,3.97
2023-04-26T13:45:41.325Z,6.03
2023-04-26T13:50:42.856Z,6.15
2023-04-26T13:55:44.394Z,7.50
2023-04-26T14:00:45.982Z,4.63
2023-04-26T14:05:47.548Z,8.38
2023-04-26T14:10:49.160Z,9.10
2023-04-26T14:15:50.858Z,6.00
2023-04-26T14:20:53.536Z,4.75
2023-04-26T14:25:55.167Z,6.15
2023-04-26T14:30:59.641Z,8.95
2023-04-26T14:36:01.384Z,9.05
2023-04-26T14:41:03.183Z,4.80
2023-04-26T14:46:05.801Z,6.68
2023-04-26T14:51:07.350Z,14.80
2023-04-26T14:56:09.069Z,7.30
2023-04-26T15:01:10.927Z,5.50
2023-04-26T15:06:12.936Z,7.20
2023-04-26T15:11:14.838Z,6.20
2023-04-26T15:16:17.860Z,7.15
2023-04-26T15:21:19.659Z,7.32
2023-04-26T15:26:21.540Z,7.75
2023-04-26T15:31:23.268Z,8.45
2023-04-26T15:36:25.375Z,6.28
2023-04-26T15:41:27.166Z,6.28
2023-04-26T15:46:28.751Z,6.80
2023-04-26T15:51:30.492Z,7.60
2023-04-26T15:56:32.096Z,5.72
2023-04-26T16:01:33.774Z,5.63
2023-04-26T16:06:35.570Z,6.78
2023-04-26T16:11:37.295Z,7.03
2023-04-26T16:16:40.150Z,4.88
2023-04-26T16:21:41.929Z,6.00
2023-04-26T16:26:43.676Z,6.97
2023-04-26T16:31:45.458Z,6.25
2023-04-26T16:36:47.195Z,7.55
2023-04-26T16:41:49.007Z,5.32
2023-04-26T16:46:50.985Z,5.68
2023-04-26T16:51:52.509Z,4.00
2023-04-26T16:56:54.269Z,4.57
2023-04-26T17:01:55.862Z,4.60
2023-04-26T17:06:57.418Z,5.03
2023-04-26T17:11:59.070Z,5.18
2023-04-26T17:17:00.763Z,5.28
2023-04-26T17:22:02.441Z,7.90
2023-04-26T17:27:03.977Z,5.85
2023-04-26T17:32:05.758Z,5.95
2023-04-26T17:37:07.528Z,4.03
2023-04-26T17:42:09.025Z,8.05
2023-04-26T17:47:10.594Z,4.38
2023-04-26T17:52:12.121Z,5.90
2023-04-26T17:57:13.748Z,3.42
2023-04-26T18:02:15.321Z,10.38
2023-04-26T18:07:16.868Z,6.32
2023-04-26T18:12:18.429Z,10.00
2023-04-26T18:17:21.090Z,8.20
2023-04-26T18:22:22.783Z,4.97
2023-04-26T18:27:24.363Z,10.40
2023-04-26T18:32:26.052Z,5.82
2023-04-26T18:37:27.872Z,8.65
2023-04-26T18:42:32.285Z,5.95
2023-04-26T18:47:33.920Z,5.07
2023-04-26T18:52:35.472Z,8.75
2023-04-26T18:57:37.028Z,7.40
2023-04-26T19:02:38.767Z,6.10
2023-04-26T19:07:40.367Z,5.10
2023-04-26T19:12:41.886Z,6.65
2023-04-26T19:17:43.440Z,10.32
2023-04-26T19:22:45.301Z,9.30
2023-04-26T19:27:47.290Z,5.50
2023-04-26T19:32:48.868Z,4.97
2023-04-26T19:37:50.865Z,4.65
2023-04-26T19:42:52.395Z,6.70
2023-04-26T19:47:53.925Z,6.75
2023-04-26T19:52:55.569Z,3.88
2023-04-26T19:57:57.174Z,6.43
2023-04-26T20:02:58.938Z,8.70
2023-04-26T20:08:01.946Z,6.28
2023-04-26T20:13:04.010Z,9.30
2023-04-26T20:18:06.202Z,6.55
2023-04-26T20:23:07.779Z,4.70
2023-04-26T20:28:09.464Z,9.57
2023-04-26T20:33:11.084Z,5.50
2023-04-26T20:38:12.698Z,6.35
2023-04-26T20:43:14.699Z,5.65
2023-04-26T20:48:16.230Z,6.97
2023-04-26T20:53:17.757Z,7.13
2023-04-26T20:58:19.522Z,4.88
2023-04-26T21:03:21.956Z,5.22
2023-04-26T21:08:23.729Z,5.90
2023-04-26T21:13:25.232Z,6.20
2023-04-26T21:18:26.838Z,5.70
2023-04-26T21:23:28.427Z,6.22
2023-04-26T21:28:30.044Z,5.93
2023-04-26T21:33:32.444Z,7.15
2023-04-26T21:38:34.102Z,11.05
2023-04-26T21:43:35.640Z,6.10
2023-04-26T21:48:37.180Z,5.82
2023-04-26T21:53:38.700Z,7.72
2023-04-26T21:58:41.034Z,7.50
2023-04-26T22:03:42.965Z,5.50
2023-04-26T22:08:44.625Z,7.68
2023-04-26T22:13:46.230Z,4.72
2023-04-26T22:18:47.732Z,5.43
2023-04-26T22:23:49.369Z,4.47
2023-04-26T22:28:50.854Z,5.72
2023-04-26T22:33:52.386Z,4.35
2023-04-26T22:38:53.911Z,5.53
2023-04-26T22:43:55.543Z,4.75
2023-04-26T22:48:57.395Z,6.38
2023-04-26T22:53:58.937Z,5.47
2023-04-26T22:59:01.989Z,8.10
2023-04-26T23:04:03.719Z,6.90
2023-04-26T23:09:05.532Z,4.07
2023-04-26T23:14:07.421Z,6.75
2023-04-26T23:19:08.990Z,6.55
2023-04-26T23:24:10.533Z,4.80
2023-04-26T23:29:12.370Z,5.50
2023-04-26T23:34:14.176Z,6.10
2023-04-26T23:39:15.922Z,3.63
2023-04-26T23:44:17.554Z,5.78
2023-04-26T23:49:19.231Z,5.40
2023-04-26T23:54:20.957Z,8.70
2023-04-26T23:59:22.772Z,8.93
